sensor_id;sensor_type;location;lat;lon;timestamp;P1;durP1;ratioP1;P2;durP2;ratioP2
9424;SDS011;17139;52.140;11.636;2023-06-26T00:01:07;5.32;;;4.93;;
9424;SDS011;17139;52.140;11.636;2023-06-26T00:03:34;5.63;;;5.25;;
9424;SDS011;17139;52.140;11.636;2023-06-26T00:06:01;5.43;;;5.22;;
9424;SDS011;17139;52.140;11.636;2023-06-26T00:08:28;6.65;;;6.25;;
9424;SDS011;17139;52.140;11.636;2023-06-26T00:10:55;5.97;;;5.57;;
9424;SDS011;17139;52.140;11.636;2023-06-26T00:13:24;6.60;;;6.00;;
9424;SDS011;17139;52.140;11.636;2023-06-26T00:15:51;6.13;;;5.72;;
9424;SDS011;17139;52.140;11.636;2023-06-26T00:18:18;6.22;;;5.65;;
9424;SDS011;17139;52.140;11.636;2023-06-26T00:20:45;5.93;;;5.43;;
9424;SDS011;17139;52.140;11.636;2023-06-26T00:23:12;5.97;;;5.40;;
9424;SDS011;17139;52.140;11.636;2023-06-26T00:25:42;5.65;;;5.30;;
9424;SDS011;17139;52.140;11.636;2023-06-26T00:28:09;5.32;;;5.03;;
9424;SDS011;17139;52.140;11.636;2023-06-26T00:30:38;6.05;;;5.65;;
9424;SDS011;17139;52.140;11.636;2023-06-26T00:33:05;6.50;;;6.00;;
9424;SDS011;17139;52.140;11.636;2023-06-26T00:35:32;6.80;;;6.45;;
9424;SDS011;17139;52.140;11.636;2023-06-26T00:38:00;6.07;;;5.57;;
9424;SDS011;17139;52.140;11.636;2023-06-26T00:40:27;5.57;;;5.28;;
9424;SDS011;17139;52.140;11.636;2023-06-26T00:42:54;5.85;;;5.32;;
9424;SDS011;17139;52.140;11.636;2023-06-26T00:45:21;6.18;;;5.40;;
9424;SDS011;17139;52.140;11.636;2023-06-26T00:47:50;5.50;;;5.20;;
9424;SDS011;17139;52.140;11.636;2023-06-26T00:50:17;5.70;;;5.45;;
9424;SDS011;17139;52.140;11.636;2023-06-26T00:52:44;6.75;;;6.25;;
9424;SDS011;17139;52.140;11.636;2023-06-26T00:55:12;5.97;;;5.68;;
9424;SDS011;17139;52.140;11.636;2023-06-26T00:57:39;6.15;;;5.80;;
9424;SDS011;17139;52.140;11.636;2023-06-26T01:00:07;5.70;;;5.18;;
9424;SDS011;17139;52.140;11.636;2023-06-26T01:02:35;5.30;;;5.00;;
9424;SDS011;17139;52.140;11.636;2023-06-26T01:05:05;6.25;;;5.85;;
9424;SDS011;17139;52.140;11.636;2023-06-26T01:07:35;6.50;;;5.85;;
9424;SDS011;17139;52.140;11.636;2023-06-26T01:10:03;6.65;;;6.13;;
9424;SDS011;17139;52.140;11.636;2023-06-26T01:12:31;5.75;;;5.38;;
9424;SDS011;17139;52.140;11.636;2023-06-26T01:14:58;6.50;;;6.20;;
9424;SDS011;17139;52.140;11.636;2023-06-26T01:17:26;6.63;;;6.22;;
9424;SDS011;17139;52.140;11.636;2023-06-26T01:19:56;7.10;;;6.50;;
9424;SDS011;17139;52.140;11.636;2023-06-26T01:22:27;5.88;;;5.57;;
9424;SDS011;17139;52.140;11.636;2023-06-26T01:25:12;6.38;;;5.88;;
9424;SDS011;17139;52.140;11.636;2023-06-26T01:27:45;6.47;;;5.97;;
9424;SDS011;17139;52.140;11.636;2023-06-26T01:30:14;5.90;;;5.60;;
9424;SDS011;17139;52.140;11.636;2023-06-26T01:32:42;5.82;;;5.43;;
9424;SDS011;17139;52.140;11.636;2023-06-26T01:35:10;6.55;;;6.10;;
9424;SDS011;17139;52.140;11.636;2023-06-26T01:37:38;6.77;;;6.37;;
9424;SDS011;17139;52.140;11.636;2023-06-26T01:40:06;6.03;;;5.72;;
9424;SDS011;17139;52.140;11.636;2023-06-26T01:42:34;6.47;;;6.18;;
9424;SDS011;17139;52.140;11.636;2023-06-26T01:45:04;6.15;;;5.85;;
9424;SDS011;17139;52.140;11.636;2023-06-26T01:47:36;6.18;;;5.97;;
9424;SDS011;17139;52.140;11.636;2023-06-26T01:50:08;6.45;;;5.95;;
9424;SDS011;17139;52.140;11.636;2023-06-26T01:52:38;7.03;;;6.53;;
9424;SDS011;17139;52.140;11.636;2023-06-26T01:55:10;7.13;;;6.53;;
9424;SDS011;17139;52.140;11.636;2023-06-26T01:57:42;6.05;;;5.75;;
9424;SDS011;17139;52.140;11.636;2023-06-26T02:00:14;7.00;;;6.50;;
9424;SDS011;17139;52.140;11.636;2023-06-26T02:02:43;7.03;;;6.63;;
9424;SDS011;17139;52.140;11.636;2023-06-26T02:05:11;6.70;;;6.30;;
9424;SDS011;17139;52.140;11.636;2023-06-26T02:07:38;6.13;;;5.82;;
9424;SDS011;17139;52.140;11.636;2023-06-26T02:10:06;7.78;;;6.47;;
9424;SDS011;17139;52.140;11.636;2023-06-26T02:12:34;7.60;;;6.72;;
9424;SDS011;17139;52.140;11.636;2023-06-26T02:15:01;6.70;;;5.55;;
9424;SDS011;17139;52.140;11.636;2023-06-26T02:17:30;7.18;;;6.75;;
9424;SDS011;17139;52.140;11.636;2023-06-26T02:19:57;7.53;;;6.93;;
9424;SDS011;17139;52.140;11.636;2023-06-26T02:22:24;6.03;;;5.72;;
9424;SDS011;17139;52.140;11.636;2023-06-26T02:24:53;8.77;;;8.10;;
9424;SDS011;17139;52.140;11.636;2023-06-26T02:27:20;7.38;;;6.90;;
9424;SDS011;17139;52.140;11.636;2023-06-26T02:29:47;8.40;;;7.90;;
9424;SDS011;17139;52.140;11.636;2023-06-26T02:32:14;7.00;;;6.50;;
9424;SDS011;17139;52.140;11.636;2023-06-26T02:34:43;7.10;;;6.63;;
9424;SDS011;17139;52.140;11.636;2023-06-26T02:37:10;7.18;;;6.57;;
9424;SDS011;17139;52.140;11.636;2023-06-26T02:39:37;8.30;;;7.50;;
9424;SDS011;17139;52.140;11.636;2023-06-26T02:42:04;7.32;;;6.78;;
9424;SDS011;17139;52.140;11.636;2023-06-26T02:44:31;7.63;;;6.95;;
9424;SDS011;17139;52.140;11.636;2023-06-26T02:46:58;6.70;;;6.30;;
9424;SDS011;17139;52.140;11.636;2023-06-26T02:49:25;8.55;;;8.05;;
9424;SDS011;17139;52.140;11.636;2023-06-26T02:51:53;7.97;;;7.38;;
9424;SDS011;17139;52.140;11.636;2023-06-26T02:54:21;11.07;;;9.20;;
9424;SDS011;17139;52.140;11.636;2023-06-26T02:56:48;8.07;;;7.30;;
9424;SDS011;17139;52.140;11.636;2023-06-26T02:59:15;8.45;;;7.78;;
9424;SDS011;17139;52.140;11.636;2023-06-26T03:01:42;8.05;;;7.38;;
9424;SDS011;17139;52.140;11.636;2023-06-26T03:04:09;7.50;;;7.00;;
9424;SDS011;17139;52.140;11.636;2023-06-26T03:06:36;7.60;;;7.00;;
9424;SDS011;17139;52.140;11.636;2023-06-26T03:09:05;7.47;;;6.97;;
9424;SDS011;17139;52.140;11.636;2023-06-26T03:11:32;9.05;;;8.25;;
9424;SDS011;17139;52.140;11.636;2023-06-26T03:13:59;8.98;;;8.25;;
9424;SDS011;17139;52.140;11.636;2023-06-26T03:16:26;10.57;;;9.67;;
9424;SDS011;17139;52.140;11.636;2023-06-26T03:18:53;8.70;;;7.72;;
9424;SDS011;17139;52.140;11.636;2023-06-26T03:21:20;8.30;;;7.80;;
9424;SDS011;17139;52.140;11.636;2023-06-26T03:23:48;8.38;;;7.68;;
9424;SDS011;17139;52.140;11.636;2023-06-26T03:26:16;10.60;;;7.32;;
9424;SDS011;17139;52.140;11.636;2023-06-26T03:28:43;7.10;;;6.43;;
9424;SDS011;17139;52.140;11.636;2023-06-26T03:31:10;7.70;;;7.03;;
9424;SDS011;17139;52.140;11.636;2023-06-26T03:33:38;8.00;;;7.40;;
9424;SDS011;17139;52.140;11.636;2023-06-26T03:36:05;7.70;;;7.18;;
9424;SDS011;17139;52.140;11.636;2023-06-26T03:38:34;8.27;;;7.03;;
9424;SDS011;17139;52.140;11.636;2023-06-26T03:41:01;7.07;;;6.57;;
9424;SDS011;17139;52.140;11.636;2023-06-26T03:43:29;7.57;;;7.10;;
9424;SDS011;17139;52.140;11.636;2023-06-26T03:45:56;8.45;;;7.78;;
9424;SDS011;17139;52.140;11.636;2023-06-26T03:48:23;7.05;;;6.65;;
9424;SDS011;17139;52.140;11.636;2023-06-26T03:50:50;6.95;;;6.38;;
9424;SDS011;17139;52.140;11.636;2023-06-26T03:53:17;6.68;;;6.30;;
9424;SDS011;17139;52.140;11.636;2023-06-26T03:55:44;7.07;;;6.68;;
9424;SDS011;17139;52.140;11.636;2023-06-26T03:58:11;6.63;;;6.22;;
9424;SDS011;17139;52.140;11.636;2023-06-26T04:00:40;7.15;;;6.72;;
9424;SDS011;17139;52.140;11.636;2023-06-26T04:03:07;6.85;;;6.43;;
9424;SDS011;17139;52.140;11.636;2023-06-26T04:05:34;7.03;;;6.53;;
9424;SDS011;17139;52.140;11.636;2023-06-26T04:08:01;7.45;;;6.95;;
9424;SDS011;17139;52.140;11.636;2023-06-26T04:10:28;7.60;;;6.82;;
9424;SDS011;17139;52.140;11.636;2023-06-26T04:12:55;8.02;;;5.75;;
9424;SDS011;17139;52.140;11.636;2023-06-26T04:15:22;6.78;;;6.22;;
9424;SDS011;17139;52.140;11.636;2023-06-26T04:17:50;6.72;;;6.35;;
9424;SDS011;17139;52.140;11.636;2023-06-26T04:20:17;6.43;;;5.90;;
9424;SDS011;17139;52.140;11.636;2023-06-26T04:22:44;7.03;;;5.85;;
9424;SDS011;17139;52.140;11.636;2023-06-26T04:25:11;5.68;;;5.28;;
9424;SDS011;17139;52.140;11.636;2023-06-26T04:27:38;6.53;;;6.10;;
9424;SDS011;17139;52.140;11.636;2023-06-26T04:30:06;6.03;;;5.72;;
9424;SDS011;17139;52.140;11.636;2023-06-26T04:32:34;7.18;;;6.78;;
9424;SDS011;17139;52.140;11.636;2023-06-26T04:35:02;7.82;;;6.43;;
9424;SDS011;17139;52.140;11.636;2023-06-26T04:37:29;6.45;;;6.07;;
9424;SDS011;17139;52.140;11.636;2023-06-26T04:39:57;6.38;;;5.82;;
9424;SDS011;17139;52.140;11.636;2023-06-26T04:42:24;6.35;;;6.05;;
9424;SDS011;17139;52.140;11.636;2023-06-26T04:44:51;6.18;;;5.68;;
9424;SDS011;17139;52.140;11.636;2023-06-26T04:47:18;6.60;;;6.30;;
9424;SDS011;17139;52.140;11.636;2023-06-26T04:49:45;5.75;;;5.35;;
9424;SDS011;17139;52.140;11.636;2023-06-26T04:52:13;6.20;;;5.80;;
9424;SDS011;17139;52.140;11.636;2023-06-26T04:54:40;5.53;;;5.05;;
9424;SDS011;17139;52.140;11.636;2023-06-26T04:57:07;5.85;;;5.53;;
9424;SDS011;17139;52.140;11.636;2023-06-26T04:59:36;5.53;;;5.10;;
9424;SDS011;17139;52.140;11.636;2023-06-26T05:02:04;5.53;;;5.22;;
9424;SDS011;17139;52.140;11.636;2023-06-26T05:04:31;5.50;;;5.22;;
9424;SDS011;17139;52.140;11.636;2023-06-26T05:06:58;5.22;;;5.00;;
9424;SDS011;17139;52.140;11.636;2023-06-26T05:09:27;5.90;;;5.53;;
9424;SDS011;17139;52.140;11.636;2023-06-26T05:11:54;5.70;;;5.20;;
9424;SDS011;17139;52.140;11.636;2023-06-26T05:14:20;6.03;;;5.63;;
9424;SDS011;17139;52.140;11.636;2023-06-26T05:16:48;5.30;;;4.90;;
9424;SDS011;17139;52.140;11.636;2023-06-26T05:19:15;5.03;;;4.82;;
9424;SDS011;17139;52.140;11.636;2023-06-26T05:21:42;6.45;;;6.10;;
9424;SDS011;17139;52.140;11.636;2023-06-26T05:24:09;6.72;;;5.63;;
9424;SDS011;17139;52.140;11.636;2023-06-26T05:26:41;5.72;;;5.05;;
9424;SDS011;17139;52.140;11.636;2023-06-26T05:29:08;5.70;;;5.40;;
9424;SDS011;17139;52.140;11.636;2023-06-26T05:31:36;5.50;;;5.10;;
9424;SDS011;17139;52.140;11.636;2023-06-26T05:34:07;5.60;;;5.27;;
9424;SDS011;17139;52.140;11.636;2023-06-26T05:36:36;6.35;;;4.95;;
9424;SDS011;17139;52.140;11.636;2023-06-26T05:39:07;5.38;;;4.85;;
9424;SDS011;17139;52.140;11.636;2023-06-26T05:41:35;4.97;;;4.78;;
9424;SDS011;17139;52.140;11.636;2023-06-26T05:44:03;5.43;;;5.13;;
9424;SDS011;17139;52.140;11.636;2023-06-26T05:46:30;5.30;;;5.00;;
9424;SDS011;17139;52.140;11.636;2023-06-26T05:48:58;5.43;;;5.03;;
9424;SDS011;17139;52.140;11.636;2023-06-26T05:51:26;5.97;;;5.47;;
9424;SDS011;17139;52.140;11.636;2023-06-26T05:53:54;5.00;;;4.57;;
9424;SDS011;17139;52.140;11.636;2023-06-26T05:56:21;5.78;;;5.28;;
9424;SDS011;17139;52.140;11.636;2023-06-26T05:58:48;4.80;;;4.60;;
9424;SDS011;17139;52.140;11.636;2023-06-26T06:01:19;4.65;;;4.45;;
9424;SDS011;17139;52.140;11.636;2023-06-26T06:03:46;4.30;;;4.10;;
9424;SDS011;17139;52.140;11.636;2023-06-26T06:06:13;4.43;;;4.22;;
9424;SDS011;17139;52.140;11.636;2023-06-26T06:08:41;4.57;;;4.38;;
9424;SDS011;17139;52.140;11.636;2023-06-26T06:11:08;4.05;;;3.90;;
9424;SDS011;17139;52.140;11.636;2023-06-26T06:13:35;4.97;;;4.50;;
9424;SDS011;17139;52.140;11.636;2023-06-26T06:16:02;4.28;;;4.07;;
9424;SDS011;17139;52.140;11.636;2023-06-26T06:18:31;4.50;;;3.70;;
9424;SDS011;17139;52.140;11.636;2023-06-26T06:20:58;4.30;;;4.10;;
9424;SDS011;17139;52.140;11.636;2023-06-26T06:23:25;4.53;;;4.32;;
9424;SDS011;17139;52.140;11.636;2023-06-26T06:25:52;4.57;;;4.38;;
9424;SDS011;17139;52.140;11.636;2023-06-26T06:28:19;4.43;;;4.05;;
9424;SDS011;17139;52.140;11.636;2023-06-26T06:30:46;3.90;;;3.67;;
9424;SDS011;17139;52.140;11.636;2023-06-26T06:33:13;4.90;;;3.97;;
9424;SDS011;17139;52.140;11.636;2023-06-26T06:35:41;4.68;;;3.63;;
9424;SDS011;17139;52.140;11.636;2023-06-26T06:38:08;4.18;;;3.90;;
9424;SDS011;17139;52.140;11.636;2023-06-26T06:40:35;3.67;;;3.58;;
9424;SDS011;17139;52.140;11.636;2023-06-26T06:43:02;5.07;;;4.20;;
9424;SDS011;17139;52.140;11.636;2023-06-26T06:45:29;3.75;;;3.65;;
9424;SDS011;17139;52.140;11.636;2023-06-26T06:47:56;4.20;;;4.00;;
9424;SDS011;17139;52.140;11.636;2023-06-26T06:50:24;3.85;;;3.65;;
9424;SDS011;17139;52.140;11.636;2023-06-26T06:52:52;4.00;;;3.72;;
9424;SDS011;17139;52.140;11.636;2023-06-26T06:55:19;5.43;;;4.00;;
9424;SDS011;17139;52.140;11.636;2023-06-26T06:57:46;7.85;;;3.80;;
9424;SDS011;17139;52.140;11.636;2023-06-26T07:00:13;4.95;;;4.55;;
9424;SDS011;17139;52.140;11.636;2023-06-26T07:02:42;4.82;;;4.50;;
9424;SDS011;17139;52.140;11.636;2023-06-26T07:05:10;5.07;;;4.57;;
9424;SDS011;17139;52.140;11.636;2023-06-26T07:07:38;37.30;;;8.95;;
9424;SDS011;17139;52.140;11.636;2023-06-26T07:10:08;4.57;;;4.25;;
9424;SDS011;17139;52.140;11.636;2023-06-26T07:12:36;4.13;;;3.92;;
9424;SDS011;17139;52.140;11.636;2023-06-26T07:15:04;3.95;;;3.70;;
9424;SDS011;17139;52.140;11.636;2023-06-26T07:17:32;4.82;;;4.40;;
9424;SDS011;17139;52.140;11.636;2023-06-26T07:20:00;4.32;;;3.53;;
9424;SDS011;17139;52.140;11.636;2023-06-26T07:22:30;4.33;;;4.10;;
9424;SDS011;17139;52.140;11.636;2023-06-26T07:24:57;3.97;;;3.70;;
9424;SDS011;17139;52.140;11.636;2023-06-26T07:27:26;9.00;;;4.72;;
9424;SDS011;17139;52.140;11.636;2023-06-26T07:29:53;4.03;;;3.58;;
9424;SDS011;17139;52.140;11.636;2023-06-26T07:32:20;6.80;;;4.20;;
9424;SDS011;17139;52.140;11.636;2023-06-26T07:34:46;6.32;;;4.43;;
9424;SDS011;17139;52.140;11.636;2023-06-26T07:37:14;5.22;;;3.90;;
9424;SDS011;17139;52.140;11.636;2023-06-26T07:39:41;4.88;;;3.83;;
9424;SDS011;17139;52.140;11.636;2023-06-26T07:42:07;6.60;;;4.38;;
9424;SDS011;17139;52.140;11.636;2023-06-26T07:44:36;5.00;;;4.53;;
9424;SDS011;17139;52.140;11.636;2023-06-26T07:47:03;4.13;;;3.92;;
9424;SDS011;17139;52.140;11.636;2023-06-26T07:49:30;4.35;;;4.00;;
9424;SDS011;17139;52.140;11.636;2023-06-26T07:51:58;11.70;;;5.00;;
9424;SDS011;17139;52.140;11.636;2023-06-26T07:54:25;5.30;;;4.80;;
9424;SDS011;17139;52.140;11.636;2023-06-26T07:56:53;8.75;;;5.13;;
9424;SDS011;17139;52.140;11.636;2023-06-26T07:59:21;5.28;;;4.90;;
9424;SDS011;17139;52.140;11.636;2023-06-26T08:01:52;5.40;;;5.18;;
9424;SDS011;17139;52.140;11.636;2023-06-26T08:04:20;6.07;;;5.63;;
9424;SDS011;17139;52.140;11.636;2023-06-26T08:06:49;6.37;;;5.53;;
9424;SDS011;17139;52.140;11.636;2023-06-26T08:09:18;5.70;;;5.40;;
9424;SDS011;17139;52.140;11.636;2023-06-26T08:11:46;5.75;;;5.45;;
9424;SDS011;17139;52.140;11.636;2023-06-26T08:14:14;7.60;;;5.43;;
9424;SDS011;17139;52.140;11.636;2023-06-26T08:16:42;6.95;;;6.32;;
9424;SDS011;17139;52.140;11.636;2023-06-26T08:19:11;5.85;;;5.55;;
9424;SDS011;17139;52.140;11.636;2023-06-26T08:21:39;6.35;;;5.80;;
9424;SDS011;17139;52.140;11.636;2023-06-26T08:24:06;5.93;;;5.45;;
9424;SDS011;17139;52.140;11.636;2023-06-26T08:26:33;5.75;;;5.45;;
9424;SDS011;17139;52.140;11.636;2023-06-26T08:29:01;7.28;;;4.95;;
9424;SDS011;17139;52.140;11.636;2023-06-26T08:31:32;5.30;;;4.88;;
9424;SDS011;17139;52.140;11.636;2023-06-26T08:34:00;4.55;;;4.18;;
9424;SDS011;17139;52.140;11.636;2023-06-26T08:36:28;4.95;;;4.55;;
9424;SDS011;17139;52.140;11.636;2023-06-26T08:38:55;4.82;;;4.53;;
9424;SDS011;17139;52.140;11.636;2023-06-26T08:41:23;4.43;;;4.22;;
9424;SDS011;17139;52.140;11.636;2023-06-26T08:43:50;4.85;;;4.45;;
9424;SDS011;17139;52.140;11.636;2023-06-26T08:46:18;4.10;;;3.67;;
9424;SDS011;17139;52.140;11.636;2023-06-26T08:48:48;5.00;;;4.70;;
9424;SDS011;17139;52.140;11.636;2023-06-26T08:51:17;4.65;;;4.45;;
9424;SDS011;17139;52.140;11.636;2023-06-26T08:53:50;4.50;;;4.20;;
9424;SDS011;17139;52.140;11.636;2023-06-26T08:56:22;4.35;;;4.13;;
9424;SDS011;17139;52.140;11.636;2023-06-26T08:58:51;5.45;;;4.68;;
9424;SDS011;17139;52.140;11.636;2023-06-26T09:01:18;4.10;;;3.92;;
9424;SDS011;17139;52.140;11.636;2023-06-26T09:03:46;4.50;;;4.20;;
9424;SDS011;17139;52.140;11.636;2023-06-26T09:06:13;4.88;;;4.53;;
9424;SDS011;17139;52.140;11.636;2023-06-26T09:08:40;4.15;;;3.95;;
9424;SDS011;17139;52.140;11.636;2023-06-26T09:11:09;7.55;;;4.57;;
9424;SDS011;17139;52.140;11.636;2023-06-26T09:13:36;4.70;;;4.50;;
9424;SDS011;17139;52.140;11.636;2023-06-26T09:16:04;5.95;;;5.57;;
9424;SDS011;17139;52.140;11.636;2023-06-26T09:18:33;6.22;;;5.28;;
9424;SDS011;17139;52.140;11.636;2023-06-26T09:21:00;4.22;;;4.03;;
9424;SDS011;17139;52.140;11.636;2023-06-26T09:23:33;4.18;;;3.97;;
9424;SDS011;17139;52.140;11.636;2023-06-26T09:26:02;4.97;;;4.57;;
9424;SDS011;17139;52.140;11.636;2023-06-26T09:28:31;6.57;;;4.43;;
9424;SDS011;17139;52.140;11.636;2023-06-26T09:31:02;4.93;;;4.53;;
9424;SDS011;17139;52.140;11.636;2023-06-26T09:33:32;4.28;;;3.97;;
9424;SDS011;17139;52.140;11.636;2023-06-26T09:36:02;4.03;;;3.83;;
9424;SDS011;17139;52.140;11.636;2023-06-26T09:38:33;10.50;;;9.40;;
9424;SDS011;17139;52.140;11.636;2023-06-26T09:41:01;8.55;;;4.50;;
9424;SDS011;17139;52.140;11.636;2023-06-26T09:43:28;4.97;;;4.68;;
9424;SDS011;17139;52.140;11.636;2023-06-26T09:45:57;4.68;;;4.38;;
9424;SDS011;17139;52.140;11.636;2023-06-26T09:48:24;4.13;;;3.80;;
9424;SDS011;17139;52.140;11.636;2023-06-26T09:50:51;4.20;;;3.90;;
9424;SDS011;17139;52.140;11.636;2023-06-26T09:53:20;4.60;;;4.40;;
9424;SDS011;17139;52.140;11.636;2023-06-26T09:55:47;4.28;;;3.88;;
9424;SDS011;17139;52.140;11.636;2023-06-26T09:58:14;4.40;;;4.20;;
9424;SDS011;17139;52.140;11.636;2023-06-26T10:00:43;4.55;;;3.92;;
9424;SDS011;17139;52.140;11.636;2023-06-26T10:03:11;6.15;;;4.38;;
9424;SDS011;17139;52.140;11.636;2023-06-26T10:05:38;6.38;;;4.45;;
9424;SDS011;17139;52.140;11.636;2023-06-26T10:08:06;4.85;;;4.53;;
9424;SDS011;17139;52.140;11.636;2023-06-26T10:10:34;4.10;;;4.00;;
9424;SDS011;17139;52.140;11.636;2023-06-26T10:13:05;3.85;;;3.65;;
9424;SDS011;17139;52.140;11.636;2023-06-26T10:15:41;4.85;;;4.55;;
9424;SDS011;17139;52.140;11.636;2023-06-26T10:18:12;4.32;;;4.13;;
9424;SDS011;17139;52.140;11.636;2023-06-26T10:20:41;7.85;;;4.65;;
9424;SDS011;17139;52.140;11.636;2023-06-26T10:23:11;4.75;;;4.35;;
9424;SDS011;17139;52.140;11.636;2023-06-26T10:25:40;4.93;;;4.43;;
9424;SDS011;17139;52.140;11.636;2023-06-26T10:28:11;4.10;;;3.95;;
9424;SDS011;17139;52.140;11.636;2023-06-26T10:30:39;5.32;;;4.82;;
9424;SDS011;17139;52.140;11.636;2023-06-26T10:33:08;4.40;;;4.18;;
9424;SDS011;17139;52.140;11.636;2023-06-26T10:35:42;4.07;;;3.88;;
9424;SDS011;17139;52.140;11.636;2023-06-26T10:38:09;11.52;;;6.13;;
9424;SDS011;17139;52.140;11.636;2023-06-26T10:40:40;4.90;;;4.57;;
9424;SDS011;17139;52.140;11.636;2023-06-26T10:43:09;4.60;;;4.30;;
9424;SDS011;17139;52.140;11.636;2023-06-26T10:45:43;4.20;;;4.00;;
9424;SDS011;17139;52.140;11.636;2023-06-26T10:48:13;4.88;;;4.60;;
9424;SDS011;17139;52.140;11.636;2023-06-26T10:50:42;4.40;;;4.20;;
9424;SDS011;17139;52.140;11.636;2023-06-26T10:53:21;4.72;;;4.40;;
9424;SDS011;17139;52.140;11.636;2023-06-26T10:55:54;4.80;;;4.60;;
9424;SDS011;17139;52.140;11.636;2023-06-26T10:58:29;4.30;;;4.10;;
9424;SDS011;17139;52.140;11.636;2023-06-26T11:03:48;4.40;;;4.10;;
9424;SDS011;17139;52.140;11.636;2023-06-26T11:06:28;4.60;;;4.40;;
9424;SDS011;17139;52.140;11.636;2023-06-26T11:08:59;4.68;;;3.70;;
9424;SDS011;17139;52.140;11.636;2023-06-26T11:14:32;3.97;;;3.78;;
9424;SDS011;17139;52.140;11.636;2023-06-26T11:17:02;5.60;;;4.10;;
9424;SDS011;17139;52.140;11.636;2023-06-26T11:19:30;4.40;;;4.13;;
9424;SDS011;17139;52.140;11.636;2023-06-26T11:22:07;11.07;;;4.78;;
9424;SDS011;17139;52.140;11.636;2023-06-26T11:24:35;4.85;;;4.43;;
9424;SDS011;17139;52.140;11.636;2023-06-26T11:27:03;5.63;;;4.32;;
9424;SDS011;17139;52.140;11.636;2023-06-26T11:29:31;4.10;;;4.00;;
9424;SDS011;17139;52.140;11.636;2023-06-26T11:31:59;4.35;;;4.15;;
9424;SDS011;17139;52.140;11.636;2023-06-26T11:34:30;4.40;;;4.20;;
9424;SDS011;17139;52.140;11.636;2023-06-26T11:36:58;4.82;;;4.30;;
9424;SDS011;17139;52.140;11.636;2023-06-26T11:39:30;3.72;;;3.53;;
9424;SDS011;17139;52.140;11.636;2023-06-26T11:41:58;4.35;;;4.15;;
9424;SDS011;17139;52.140;11.636;2023-06-26T11:44:28;3.58;;;3.47;;
9424;SDS011;17139;52.140;11.636;2023-06-26T11:46:56;3.97;;;3.78;;
9424;SDS011;17139;52.140;11.636;2023-06-26T11:49:23;3.60;;;3.50;;
9424;SDS011;17139;52.140;11.636;2023-06-26T11:51:52;3.50;;;3.40;;
9424;SDS011;17139;52.140;11.636;2023-06-26T11:54:26;5.97;;;3.90;;
9424;SDS011;17139;52.140;11.636;2023-06-26T11:56:56;3.70;;;3.50;;
9424;SDS011;17139;52.140;11.636;2023-06-26T11:59:32;3.85;;;3.55;;
9424;SDS011;17139;52.140;11.636;2023-06-26T12:02:04;4.50;;;4.10;;
9424;SDS011;17139;52.140;11.636;2023-06-26T12:04:32;4.22;;;3.92;;
9424;SDS011;17139;52.140;11.636;2023-06-26T12:07:00;4.10;;;3.80;;
9424;SDS011;17139;52.140;11.636;2023-06-26T12:09:29;4.00;;;3.80;;
9424;SDS011;17139;52.140;11.636;2023-06-26T12:12:00;4.80;;;4.50;;
9424;SDS011;17139;52.140;11.636;2023-06-26T12:14:28;4.50;;;4.20;;
9424;SDS011;17139;52.140;11.636;2023-06-26T12:16:55;4.57;;;4.18;;
9424;SDS011;17139;52.140;11.636;2023-06-26T12:19:29;4.55;;;4.15;;
9424;SDS011;17139;52.140;11.636;2023-06-26T12:21:59;4.32;;;4.10;;
9424;SDS011;17139;52.140;11.636;2023-06-26T12:24:33;5.38;;;5.00;;
9424;SDS011;17139;52.140;11.636;2023-06-26T12:27:09;4.95;;;4.75;;
9424;SDS011;17139;52.140;11.636;2023-06-26T12:29:38;7.35;;;5.45;;
9424;SDS011;17139;52.140;11.636;2023-06-26T12:32:08;6.00;;;5.50;;
9424;SDS011;17139;52.140;11.636;2023-06-26T12:34:36;6.13;;;5.57;;
9424;SDS011;17139;52.140;11.636;2023-06-26T12:37:05;6.00;;;5.43;;
9424;SDS011;17139;52.140;11.636;2023-06-26T12:39:47;5.53;;;5.07;;
9424;SDS011;17139;52.140;11.636;2023-06-26T12:42:17;6.40;;;6.00;;
9424;SDS011;17139;52.140;11.636;2023-06-26T12:44:45;6.53;;;5.90;;
9424;SDS011;17139;52.140;11.636;2023-06-26T12:47:13;8.07;;;6.63;;
9424;SDS011;17139;52.140;11.636;2023-06-26T12:49:42;6.88;;;6.40;;
9424;SDS011;17139;52.140;11.636;2023-06-26T12:52:11;7.15;;;6.45;;
9424;SDS011;17139;52.140;11.636;2023-06-26T12:54:39;6.05;;;5.55;;
9424;SDS011;17139;52.140;11.636;2023-06-26T12:57:08;6.95;;;6.45;;
9424;SDS011;17139;52.140;11.636;2023-06-26T12:59:37;6.10;;;5.60;;
9424;SDS011;17139;52.140;11.636;2023-06-26T13:02:04;6.75;;;6.30;;
9424;SDS011;17139;52.140;11.636;2023-06-26T13:04:32;5.70;;;5.30;;
9424;SDS011;17139;52.140;11.636;2023-06-26T13:06:59;7.35;;;5.57;;
9424;SDS011;17139;52.140;11.636;2023-06-26T13:09:26;6.90;;;6.13;;
9424;SDS011;17139;52.140;11.636;2023-06-26T13:11:59;6.38;;;6.07;;
9424;SDS011;17139;52.140;11.636;2023-06-26T13:14:26;5.82;;;5.53;;
9424;SDS011;17139;52.140;11.636;2023-06-26T13:16:55;13.35;;;6.20;;
9424;SDS011;17139;52.140;11.636;2023-06-26T13:19:22;7.50;;;6.75;;
9424;SDS011;17139;52.140;11.636;2023-06-26T13:21:49;7.80;;;7.10;;
9424;SDS011;17139;52.140;11.636;2023-06-26T13:24:16;6.25;;;5.90;;
9424;SDS011;17139;52.140;11.636;2023-06-26T13:26:43;7.10;;;6.40;;
9424;SDS011;17139;52.140;11.636;2023-06-26T13:29:10;9.30;;;6.95;;
9424;SDS011;17139;52.140;11.636;2023-06-26T13:31:37;7.07;;;5.65;;
9424;SDS011;17139;52.140;11.636;2023-06-26T13:34:05;5.50;;;4.97;;
9424;SDS011;17139;52.140;11.636;2023-06-26T13:36:32;4.03;;;3.83;;
9424;SDS011;17139;52.140;11.636;2023-06-26T13:39:00;3.88;;;3.63;;
9424;SDS011;17139;52.140;11.636;2023-06-26T13:41:27;4.13;;;3.88;;
9424;SDS011;17139;52.140;11.636;2023-06-26T13:43:55;5.03;;;4.30;;
9424;SDS011;17139;52.140;11.636;2023-06-26T13:46:22;4.68;;;3.47;;
9424;SDS011;17139;52.140;11.636;2023-06-26T13:48:49;2.03;;;1.92;;
9424;SDS011;17139;52.140;11.636;2023-06-26T13:51:17;4.45;;;4.20;;
9424;SDS011;17139;52.140;11.636;2023-06-26T13:53:44;5.50;;;3.47;;
9424;SDS011;17139;52.140;11.636;2023-06-26T13:56:11;3.00;;;2.63;;
9424;SDS011;17139;52.140;11.636;2023-06-26T13:58:38;10.07;;;4.30;;
9424;SDS011;17139;52.140;11.636;2023-06-26T14:01:05;4.45;;;3.60;;
9424;SDS011;17139;52.140;11.636;2023-06-26T14:03:32;4.95;;;4.55;;
9424;SDS011;17139;52.140;11.636;2023-06-26T14:06:00;5.03;;;4.68;;
9424;SDS011;17139;52.140;11.636;2023-06-26T14:08:28;4.90;;;4.60;;
9424;SDS011;17139;52.140;11.636;2023-06-26T14:10:55;4.18;;;4.07;;
9424;SDS011;17139;52.140;11.636;2023-06-26T14:13:22;4.65;;;4.45;;
9424;SDS011;17139;52.140;11.636;2023-06-26T14:15:49;4.65;;;4.40;;
9424;SDS011;17139;52.140;11.636;2023-06-26T14:18:35;4.05;;;3.85;;
9424;SDS011;17139;52.140;11.636;2023-06-26T14:21:04;3.55;;;3.35;;
9424;SDS011;17139;52.140;11.636;2023-06-26T14:23:33;3.65;;;3.38;;
9424;SDS011;17139;52.140;11.636;2023-06-26T14:26:00;4.50;;;4.10;;
9424;SDS011;17139;52.140;11.636;2023-06-26T14:28:28;2.38;;;2.17;;
9424;SDS011;17139;52.140;11.636;2023-06-26T14:30:55;2.35;;;2.25;;
9424;SDS011;17139;52.140;11.636;2023-06-26T14:33:22;4.87;;;4.67;;
9424;SDS011;17139;52.140;11.636;2023-06-26T14:35:49;4.80;;;4.60;;
9424;SDS011;17139;52.140;11.636;2023-06-26T14:38:16;4.60;;;4.30;;
9424;SDS011;17139;52.140;11.636;2023-06-26T14:40:44;4.65;;;4.35;;
9424;SDS011;17139;52.140;11.636;2023-06-26T14:43:11;5.97;;;3.65;;
9424;SDS011;17139;52.140;11.636;2023-06-26T14:45:38;7.03;;;4.57;;
9424;SDS011;17139;52.140;11.636;2023-06-26T14:48:06;5.15;;;4.80;;
9424;SDS011;17139;52.140;11.636;2023-06-26T14:50:39;5.60;;;5.20;;
9424;SDS011;17139;52.140;11.636;2023-06-26T14:53:07;8.68;;;4.70;;
9424;SDS011;17139;52.140;11.636;2023-06-26T14:55:34;4.53;;;4.25;;
9424;SDS011;17139;52.140;11.636;2023-06-26T14:58:02;5.32;;;4.50;;
9424;SDS011;17139;52.140;11.636;2023-06-26T15:00:29;4.35;;;4.22;;